Time;durP1;ratioP1;P1;durP2;ratioP2;P2;SDS_P1;SDS_P2;PMS_P1;PMS_P2;Temp;Humidity;BMP_temperature;BMP_pressure;BME280_temperature;BME280_humidity;BME280_pressure;Samples;Min_cycle;Max_cycle;Signal;HPM_P1;HPM_P2
2022/11/12 00:00:11;;;;;;;34.37;17.83;;;;;;;-141.28;100.00;50846.47;5110575;28;20793;-76
2022/11/12 00:02:38;;;;;;;34.27;18.40;;;;;;;-141.28;100.00;50667.81;5110696;28;20203;-76
2022/11/12 00:05:05;;;;;;;32.17;17.57;;;;;;;-141.28;100.00;50785.59;5097934;28;20510;-76
2022/11/12 00:07:32;;;;;;;31.80;17.63;;;;;;;-141.28;100.00;50809.16;5110467;28;20448;-77
2022/11/12 00:10:01;;;;;;;34.40;18.00;;;;;;;-141.28;100.00;50734.56;5108560;28;20505;-79
2022/11/12 00:12:27;;;;;;;30.33;17.77;;;;;;;-141.28;100.00;50722.78;5103732;28;21079;-77
2022/11/12 00:14:54;;;;;;;29.87;17.83;;;;;;;-141.28;100.00;50718.88;5108776;28;20491;-77
2022/11/12 00:17:21;;;;;;;28.17;16.77;;;;;;;-141.28;100.00;50742.41;5059864;28;1368163;-79
2022/11/12 00:19:48;;;;;;;32.67;17.97;;;;;;;-141.28;100.00;50667.81;5114349;28;20675;-76
2022/11/12 00:22:16;;;;;;;34.60;19.10;;;;;;;-141.28;100.00;50675.69;5114201;28;20946;-79
2022/11/12 00:24:43;;;;;;;29.60;17.53;;;;;;;-141.28;100.00;50659.97;5114592;28;20440;-77
2022/11/12 00:27:12;;;;;;;34.73;19.17;;;;;;;-141.28;100.00;50658.00;5114824;28;20704;-75
2022/11/12 00:29:39;;;;;;;30.10;18.40;;;;;;;-141.28;100.00;50659.97;5113727;28;20440;-76
2022/11/12 00:32:06;;;;;;;33.43;18.40;;;;;;;-141.28;100.00;50667.81;5108923;28;20206;-75
2022/11/12 00:34:33;;;;;;;33.77;18.90;;;;;;;-141.28;100.00;50659.97;5112522;28;20445;-75
2022/11/12 00:37:02;;;;;;;33.07;18.53;;;;;;;-141.28;100.00;50422.47;5103001;28;20245;-78
2022/11/12 00:39:29;;;;;;;33.97;19.23;;;;;;;-141.28;100.00;50640.34;5114280;28;20203;-76
2022/11/12 00:41:56;;;;;;;33.93;19.60;;;;;;;-141.28;100.00;50606.97;5114257;28;20947;-75
2022/11/12 00:44:25;;;;;;;31.53;19.10;;;;;;;-141.28;100.00;50577.53;5114244;28;20441;-77
2022/11/12 00:46:52;;;;;;;35.90;18.80;;;;;;;-141.28;100.00;50612.88;5113136;28;20206;-76
2022/11/12 00:49:18;;;;;;;35.00;19.57;;;;;;;-141.28;100.00;50597.16;5114130;28;20322;-77
2022/11/12 00:51:46;;;;;;;33.57;19.70;;;;;;;-141.28;100.00;50606.97;5114194;28;20205;-77
2022/11/12 00:54:12;;;;;;;30.03;18.77;;;;;;;-141.28;100.00;50612.88;5114209;28;20199;-75
2022/11/12 00:56:40;;;;;;;32.43;19.50;;;;;;;-141.28;100.00;50630.53;5113762;28;20629;-77
2022/11/12 00:59:07;;;;;;;30.70;18.63;;;;;;;-141.28;100.00;50640.34;5114350;28;20199;-75
2022/11/12 01:01:35;;;;;;;35.97;18.97;;;;;;;-141.28;100.00;50597.16;5113950;28;20199;-75
2022/11/12 01:04:02;;;;;;;40.40;19.37;;;;;;;-141.28;100.00;50569.69;5100599;28;20207;-78
2022/11/12 01:06:29;;;;;;;32.37;18.70;;;;;;;-141.28;100.00;50597.16;5113791;28;20453;-77
2022/11/12 01:08:56;;;;;;;33.40;19.63;;;;;;;-141.28;100.00;50548.09;5113630;28;20207;-76
2022/11/12 01:11:25;;;;;;;33.93;19.23;;;;;;;-141.28;100.00;50561.81;5113800;28;20222;-76
2022/11/12 01:13:55;;;;;;;32.80;19.10;;;;;;;-141.28;100.00;50522.56;5113885;28;20765;-76
2022/11/12 01:16:24;;;;;;;29.93;18.33;;;;;;;-141.28;100.00;50520.59;5116514;28;20230;-75
2022/11/12 01:18:55;;;;;;;34.00;18.60;;;;;;;-141.28;100.00;50518.66;5113772;28;20280;-77
2022/11/12 01:21:22;;;;;;;33.40;19.17;;;;;;;-141.28;100.00;50573.59;5112046;28;20661;-77
2022/11/12 01:23:49;;;;;;;35.33;19.60;;;;;;;-141.28;100.00;50561.81;5112701;28;20687;-76
2022/11/12 01:26:18;;;;;;;33.37;19.10;;;;;;;-141.28;100.00;50573.59;5113656;28;20202;-76
2022/11/12 01:28:46;;;;;;;33.93;19.73;;;;;;;-141.28;100.00;50534.34;5113820;28;20252;-75
2022/11/12 01:31:15;;;;;;;34.23;20.13;;;;;;;-141.28;100.00;50565.75;5113500;28;20739;-76
2022/11/12 01:33:43;;;;;;;31.50;18.80;;;;;;;-141.28;100.00;50601.09;5113305;28;20214;-76
2022/11/12 01:36:13;;;;;;;31.47;18.10;;;;;;;-141.28;100.00;50658.00;5109655;28;20227;-76
2022/11/12 01:38:41;;;;;;;32.53;17.97;;;;;;;-141.28;100.00;50658.00;5104463;28;20985;-79
2022/11/12 01:41:09;;;;;;;30.77;17.60;;;;;;;-141.28;100.00;50673.72;5113470;28;20452;-76
2022/11/12 01:43:36;;;;;;;28.97;16.53;;;;;;;-141.28;100.00;50687.47;5113321;28;20452;-76
2022/11/12 01:46:10;;;;;;;28.57;15.83;;;;;;;-141.28;100.00;50695.31;5112978;28;20989;-76
2022/11/12 01:48:39;;;;;;;25.03;14.97;;;;;;;-141.28;100.00;50652.13;5113186;28;20445;-74
2022/11/12 01:51:08;;;;;;;27.73;15.73;;;;;;;-141.28;100.00;50669.78;5113283;28;20444;-78
2022/11/12 01:53:43;;;;;;;24.57;14.53;;;;;;;-141.28;100.00;50699.22;5112883;28;20441;-78
2022/11/12 01:56:12;;;;;;;25.13;14.90;;;;;;;-141.28;100.00;50581.47;5113323;28;20840;-77
2022/11/12 01:58:40;;;;;;;22.07;13.10;;;;;;;-141.28;100.00;50734.56;5113584;28;20529;-75
2022/11/12 02:01:08;;;;;;;20.17;12.60;;;;;;;-141.28;100.00;50636.41;5115414;28;20207;-76
2022/11/12 02:03:34;;;;;;;17.53;10.33;;;;;;;-141.28;100.00;50734.56;5113111;28;20199;-78
2022/11/12 02:06:06;;;;;;;16.00;10.03;;;;;;;-141.28;100.00;50765.97;5115866;28;20523;-78
2022/11/12 02:08:34;;;;;;;14.57;9.50;;;;;;;-141.28;100.00;50738.50;5115075;28;20209;-76
2022/11/12 02:11:12;;;;;;;18.33;9.27;;;;;;;-141.28;100.00;50701.19;5116427;28;21045;-75
2022/11/12 02:13:57;;;;;;;13.50;8.47;;;;;;;-141.28;100.00;50673.72;5113959;28;20833;-74
2022/11/12 02:16:25;;;;;;;15.80;8.87;;;;;;;-141.28;100.00;50595.19;5118616;28;20495;-75
2022/11/12 02:18:51;;;;;;;16.87;9.43;;;;;;;-141.28;100.00;50601.09;5115770;28;20651;-75
2022/11/12 02:21:21;;;;;;;14.57;9.10;;;;;;;-141.28;100.00;50573.59;5114245;28;20490;-78
2022/11/12 02:23:57;;;;;;;17.10;9.03;;;;;;;-141.28;100.00;50538.28;5112143;28;20543;-78
2022/11/12 02:26:25;;;;;;;15.37;8.83;;;;;;;-141.28;100.00;50518.66;5112143;28;20872;-76
2022/11/12 02:28:53;;;;;;;15.80;8.60;;;;;;;-141.28;100.00;50597.16;5112394;28;20198;-76
2022/11/12 02:31:20;;;;;;;16.10;9.07;;;;;;;-141.28;100.00;50603.06;5112378;28;20432;-74
2022/11/12 02:33:49;;;;;;;16.17;9.37;;;;;;;-141.28;100.00;50626.59;5115539;28;20677;-77
2022/11/12 02:36:16;;;;;;;14.43;9.13;;;;;;;-141.28;100.00;50648.19;5112348;28;20468;-78
2022/11/12 02:38:44;;;;;;;16.47;9.03;;;;;;;-141.28;100.00;50640.34;5112465;28;20474;-76
2022/11/12 02:41:11;;;;;;;14.17;8.73;;;;;;;-141.28;100.00;50679.59;5112435;28;20507;-77
2022/11/12 02:43:38;;;;;;;14.13;8.40;;;;;;;-141.28;100.00;50661.94;5112473;28;20276;-79
2022/11/12 02:46:05;;;;;;;14.13;8.37;;;;;;;-141.28;100.00;50648.19;5111985;28;20536;-77
2022/11/12 02:48:33;;;;;;;15.33;8.37;;;;;;;-141.28;100.00;50683.53;5112396;28;20448;-77
2022/11/12 02:51:00;;;;;;;11.83;7.80;;;;;;;-141.28;100.00;50693.34;5112053;28;20437;-75
2022/11/12 02:53:27;;;;;;;15.17;8.57;;;;;;;-141.28;100.00;50675.69;5112559;28;20948;-75
2022/11/12 02:55:55;;;;;;;17.83;8.13;;;;;;;-141.28;100.00;50801.31;5111446;28;21013;-78
2022/11/12 02:58:23;;;;;;;13.87;7.53;;;;;;;-141.28;100.00;50868.06;5112083;28;20452;-75
2022/11/12 03:00:50;;;;;;;11.03;7.17;;;;;;;-141.28;100.00;50899.47;5112111;28;20453;-77
2022/11/12 03:03:17;;;;;;;12.83;7.10;;;;;;;-141.28;100.00;50848.44;5112449;28;20440;-78
2022/11/12 03:05:45;;;;;;;13.67;7.83;;;;;;;-141.28;100.00;50946.59;5098694;28;20502;-76
2022/11/12 03:08:12;;;;;;;12.97;8.13;;;;;;;-141.28;100.00;50879.84;5112620;28;20440;-77
2022/11/12 03:10:40;;;;;;;16.83;7.70;;;;;;;-141.28;100.00;50954.44;5111583;28;20566;-75
2022/11/12 03:13:08;;;;;;;14.83;8.17;;;;;;;-141.28;100.00;50934.81;5111715;28;20572;-75
2022/11/12 03:15:36;;;;;;;12.53;8.00;;;;;;;-141.28;100.00;50938.72;5111812;28;20453;-78
2022/11/12 03:18:04;;;;;;;11.57;7.17;;;;;;;-141.28;100.00;50948.53;5111265;28;20473;-78
2022/11/12 03:20:33;;;;;;;14.67;7.93;;;;;;;-141.28;100.00;50930.88;5111827;28;20448;-79
2022/11/12 03:23:03;;;;;;;13.07;7.43;;;;;;;-141.28;100.00;50926.94;5111467;28;20464;-79
2022/11/12 03:25:31;;;;;;;12.67;7.70;;;;;;;-141.28;100.00;50919.09;5111908;28;20448;-77
2022/11/12 03:27:59;;;;;;;11.43;7.03;;;;;;;-141.28;100.00;50950.50;5111554;28;20441;-77
2022/11/12 03:30:29;;;;;;;12.47;8.07;;;;;;;-141.28;100.00;50923.03;5111729;28;21003;-76
2022/11/12 03:32:56;;;;;;;13.50;8.13;;;;;;;-141.28;100.00;50946.59;5097847;28;20445;-76
2022/11/12 03:35:23;;;;;;;14.27;8.73;;;;;;;-141.28;100.00;51027.06;5111891;28;20440;-78
2022/11/12 03:37:50;;;;;;;16.47;9.40;;;;;;;-141.28;100.00;51089.91;5111453;28;20495;-76
2022/11/12 03:40:18;;;;;;;14.43;8.37;;;;;;;-141.28;100.00;51158.59;5111617;28;20487;-77
2022/11/12 03:42:46;;;;;;;15.17;8.47;;;;;;;-141.28;100.00;51209.66;5111318;28;20455;-78
2022/11/12 03:45:13;;;;;;;14.47;8.10;;;;;;;-141.28;100.00;51197.88;5111643;28;20491;-78
2022/11/12 03:47:43;;;;;;;13.33;7.70;;;;;;;-141.28;100.00;51235.19;5117543;28;20477;-75
2022/11/12 03:50:11;;;;;;;14.17;7.60;;;;;;;-141.28;100.00;51268.56;5119539;28;20440;-74
2022/11/12 03:52:44;;;;;;;12.10;7.57;;;;;;;-141.28;100.00;51315.66;5116475;28;20437;-74
2022/11/12 03:55:12;;;;;;;16.13;8.33;;;;;;;-141.28;100.00;51260.69;5116824;28;20460;-76
2022/11/12 03:57:39;;;;;;;14.17;8.43;;;;;;;-141.28;100.00;51225.34;5116038;28;20484;-77
2022/11/12 04:00:09;;;;;;;14.40;8.80;;;;;;;-141.28;100.00;51362.78;5117175;28;20444;-75
2022/11/12 04:02:36;;;;;;;20.60;11.90;;;;;;;-141.28;100.00;51384.38;5115535;28;20452;-79
2022/11/12 04:10:35;;;;;;;14.67;9.40;;;;;;;-141.28;100.00;51286.22;5124165;28;20439;-75
2022/11/12 04:21:49;;;;;;;17.57;8.93;;;;;;;-141.28;100.00;51272.47;5125044;28;20820;-73
2022/11/12 04:24:05;;;;;;;13.47;7.57;;;;;;;-141.28;100.00;51166.47;5115607;28;20451;-75
2022/11/12 04:26:31;;;;;;;23.00;8.10;;;;;;;-141.28;100.00;51288.19;5115160;28;20449;-79
2022/11/12 04:31:42;;;;;;;13.00;8.13;;;;;;;-141.28;100.00;51268.56;5102085;28;20675;-79
2022/11/12 04:36:54;;;;;;;19.03;7.90;;;;;;;-141.28;100.00;51280.34;5104141;28;21049;-75
2022/11/12 04:39:21;;;;;;;11.70;6.90;;;;;;;-141.28;100.00;51347.09;5114435;28;20436;-76
2022/11/12 04:47:15;;;;;;;16.73;7.50;;;;;;;-141.28;100.00;51311.75;5114406;28;20464;-77
2022/11/12 04:49:44;;;;;;;13.33;7.73;;;;;;;-141.28;100.00;51335.31;5114154;28;20445;-79
2022/11/12 04:52:12;;;;;;;14.13;7.70;;;;;;;-141.28;100.00;51349.06;5114240;28;20445;-76
2022/11/12 04:54:39;;;;;;;16.60;8.67;;;;;;;-141.28;100.00;51370.66;5114219;28;20494;-78
2022/11/12 04:57:06;;;;;;;18.40;8.20;;;;;;;-141.28;100.00;51366.72;5112013;28;20483;-75
2022/11/12 04:59:33;;;;;;;15.40;8.90;;;;;;;-141.28;100.00;51366.72;5103417;28;20448;-75
2022/11/12 05:02:00;;;;;;;20.00;8.77;;;;;;;-141.28;100.00;51374.56;5113181;28;20978;-76
2022/11/12 05:04:28;;;;;;;15.17;9.47;;;;;;;-141.28;100.00;51335.31;5113982;28;20452;-78
2022/11/12 05:06:56;;;;;;;11.80;8.20;;;;;;;-141.28;100.00;51331.38;5116483;28;20477;-75
2022/11/12 05:09:26;;;;;;;16.27;7.80;;;;;;;-141.28;100.00;51329.41;5113579;28;20464;-75
2022/11/12 05:11:54;;;;;;;21.77;8.77;;;;;;;-141.28;100.00;51366.72;5113640;28;20510;-75
2022/11/12 05:14:21;;;;;;;18.80;8.57;;;;;;;-141.28;100.00;51358.88;5114278;28;20580;-74
2022/11/12 05:16:48;;;;;;;13.13;7.53;;;;;;;-141.28;100.00;51319.59;5113414;28;20518;-79
2022/11/12 05:19:15;;;;;;;15.73;7.63;;;;;;;-141.28;100.00;51333.34;5114446;28;20869;-77
2022/11/12 05:24:28;;;;;;;14.23;7.93;;;;;;;-141.28;100.00;51170.38;5114696;28;20444;-77
2022/11/12 05:26:54;;;;;;;13.57;8.10;;;;;;;-141.28;100.00;51188.06;5114015;28;20884;-79
2022/11/12 05:29:22;;;;;;;13.30;7.97;;;;;;;-141.28;100.00;51138.97;5113939;28;20494;-77
2022/11/12 05:31:49;;;;;;;12.63;7.23;;;;;;;-141.28;100.00;51162.53;5117652;28;20575;-73
2022/11/12 05:34:16;;;;;;;13.37;8.60;;;;;;;-141.28;100.00;51172.34;5136364;28;20470;-72
2022/11/12 05:36:43;;;;;;;13.90;8.50;;;;;;;-141.28;100.00;51211.63;5138315;28;21049;-76
2022/11/12 05:39:09;;;;;;;13.10;8.63;;;;;;;-141.28;100.00;51193.94;5138693;28;20474;-75
2022/11/12 05:41:38;;;;;;;23.70;9.47;;;;;;;-141.28;100.00;51231.25;5123495;28;20453;-74
2022/11/12 05:44:05;;;;;;;22.37;10.43;;;;;;;-141.28;100.00;51262.66;5136929;28;20447;-75
2022/11/12 05:46:32;;;;;;;13.87;8.37;;;;;;;-141.28;100.00;51425.63;5123661;28;20460;-79
2022/11/12 05:48:59;;;;;;;15.57;8.33;;;;;;;-141.28;100.00;51557.16;5114068;28;20448;-74
2022/11/12 05:51:26;;;;;;;17.67;9.53;;;;;;;-141.28;100.00;51641.59;5113874;28;20866;-76
2022/11/12 05:53:53;;;;;;;16.77;8.60;;;;;;;-141.28;100.00;51669.09;5113603;28;20476;-75
2022/11/12 05:56:19;;;;;;;15.20;9.23;;;;;;;-141.28;100.00;51661.25;5112937;28;20441;-75
2022/11/12 05:58:48;;;;;;;15.47;9.20;;;;;;;-141.28;100.00;51669.09;5112714;28;20510;-76
2022/11/12 06:01:14;;;;;;;23.00;10.87;;;;;;;-141.28;100.00;51692.66;5112926;28;20476;-77
2022/11/12 06:03:41;;;;;;;21.23;11.57;;;;;;;-141.28;100.00;51696.59;5113039;28;20663;-79
2022/11/12 06:06:09;;;;;;;15.77;10.17;;;;;;;-141.28;100.00;51676.94;5113108;28;20203;-78
2022/11/12 06:08:36;;;;;;;13.93;7.50;;;;;;;-141.28;100.00;51684.81;5112752;28;20206;-76
2022/11/12 06:11:03;;;;;;;14.87;8.13;;;;;;;-141.28;100.00;51665.16;5112562;28;20230;-77
2022/11/12 06:13:30;;;;;;;20.77;9.43;;;;;;;-141.28;100.00;51366.72;5112358;28;20684;-76
2022/11/12 06:15:58;;;;;;;11.60;7.30;;;;;;;-141.28;100.00;51470.78;5112602;28;20203;-79
2022/11/12 06:18:26;;;;;;;13.23;7.47;;;;;;;-141.28;100.00;51673.03;5112242;28;20731;-80
2022/11/12 06:23:34;;;;;;;7.57;5.90;;;;;;;-141.28;100.00;52006.84;5099576;28;20198;-74
2022/11/12 06:26:01;;;;;;;8.70;5.63;;;;;;;-141.28;100.00;52026.47;5114585;28;20203;-78
2022/11/12 06:28:29;;;;;;;10.57;5.90;;;;;;;-141.28;100.00;51781.03;5112531;28;20219;-74
2022/11/12 06:30:57;;;;;;;12.97;6.07;;;;;;;-141.28;100.00;51631.78;5112549;28;20275;-77
2022/11/12 06:33:24;;;;;;;14.63;6.20;;;;;;;-141.28;100.00;51539.50;5112314;28;20220;-77
2022/11/12 06:36:01;;;;;;;8.43;5.93;;;;;;;-141.28;100.00;51447.22;5112393;28;20203;-74
2022/11/12 06:38:29;;;;;;;22.13;7.70;;;;;;;-141.28;100.00;51406.00;5113585;28;20222;-79
2022/11/12 06:40:56;;;;;;;15.80;8.20;;;;;;;-141.28;100.00;51284.25;5112170;28;20195;-77
2022/11/12 06:43:23;;;;;;;16.77;7.53;;;;;;;-141.28;100.00;51178.25;5112068;28;20226;-76
2022/11/12 06:45:50;;;;;;;23.13;9.93;;;;;;;-141.28;100.00;50987.81;5112128;28;20202;-76
2022/11/12 06:48:19;;;;;;;16.70;8.10;;;;;;;-141.28;100.00;50873.94;5098297;28;20215;-76
2022/11/12 06:50:46;;;;;;;13.17;7.90;;;;;;;-141.28;100.00;50707.09;5112066;28;20206;-77
2022/11/12 06:53:13;;;;;;;13.17;7.20;;;;;;;-141.28;100.00;50546.13;5112251;28;20297;-77
2022/11/12 06:55:40;;;;;;;11.87;7.60;;;;;;;-141.28;100.00;50420.50;5112270;28;20202;-76
2022/11/12 06:58:07;;;;;;;12.70;7.73;;;;;;;-141.28;100.00;50290.97;5110887;28;20230;-78
2022/11/12 07:00:34;;;;;;;13.77;8.57;;;;;;;-141.28;100.00;50236.00;5103478;28;20199;-75
2022/11/12 07:03:06;;;;;;;14.13;7.80;;;;;;;-141.28;100.00;50192.81;5114483;28;20210;-75
2022/11/12 07:05:37;;;;;;;12.43;7.47;;;;;;;-141.28;100.00;50192.81;5113781;28;20279;-77
2022/11/12 07:08:04;;;;;;;17.57;7.03;;;;;;;-141.28;100.00;50181.03;5111966;28;20684;-75
2022/11/12 07:10:31;;;;;;;13.90;8.50;;;;;;;-141.28;100.00;50261.50;5111655;28;20507;-75
2022/11/12 07:12:58;;;;;;;13.67;8.87;;;;;;;-141.28;100.00;50200.66;5111400;28;20342;-77
2022/11/12 07:15:25;;;;;;;13.60;8.97;;;;;;;-141.28;100.00;50200.66;5111620;28;20525;-76
2022/11/12 07:17:51;;;;;;;16.27;9.57;;;;;;;-141.28;100.00;50287.03;5098188;28;20234;-79
2022/11/12 07:20:18;;;;;;;11.30;7.30;;;;;;;-141.28;100.00;50308.63;5110487;28;20943;-77
2022/11/12 07:22:46;;;;;;;17.60;9.50;;;;;;;-141.28;100.00;50263.47;5114824;28;20195;-77
2022/11/12 07:25:13;;;;;;;12.83;7.87;;;;;;;-141.28;100.00;50393.03;5115681;28;20657;-75
2022/11/12 07:27:40;;;;;;;8.90;5.70;;;;;;;-141.28;100.00;50459.75;5115470;28;20214;-76
2022/11/12 07:30:08;;;;;;;9.83;5.63;;;;;;;-141.28;100.00;50514.72;5102623;28;20215;-79
2022/11/12 07:32:36;;;;;;;7.23;5.00;;;;;;;-141.28;100.00;50550.06;5116381;28;20218;-75
2022/11/12 07:35:03;;;;;;;8.10;5.60;;;;;;;-141.28;100.00;50591.28;5115714;28;20231;-75
2022/11/12 07:37:32;;;;;;;9.77;5.57;;;;;;;-141.28;100.00;50493.13;5116666;28;20644;-77
2022/11/12 07:40:02;;;;;;;8.30;5.43;;;;;;;-141.28;100.00;50534.34;5115614;28;20251;-77
2022/11/12 07:42:29;;;;;;;11.10;6.37;;;;;;;-141.28;100.00;50510.78;5118953;28;20199;-74
2022/11/12 07:44:56;;;;;;;10.83;5.93;;;;;;;-141.28;100.00;50467.59;5115470;28;20232;-76
2022/11/12 07:47:23;;;;;;;7.90;6.00;;;;;;;-141.28;100.00;50449.94;5115607;28;20207;-76
2022/11/12 07:49:52;;;;;;;10.37;5.77;;;;;;;-141.28;100.00;50373.38;5114708;28;20202;-78
2022/11/12 07:52:19;;;;;;;9.97;6.07;;;;;;;-141.28;100.00;50345.91;5115514;28;20230;-77
2022/11/12 07:54:45;;;;;;;7.17;4.90;;;;;;;-141.28;100.00;50279.19;5115023;28;20632;-76
2022/11/12 07:57:14;;;;;;;9.13;5.43;;;;;;;-141.28;100.00;50204.59;5115008;28;20685;-76
2022/11/12 07:59:40;;;;;;;10.17;6.10;;;;;;;-141.28;100.00;50147.69;5114975;28;20222;-76
2022/11/12 08:02:10;;;;;;;9.10;5.90;;;;;;;-141.28;100.00;50090.75;5115219;28;20221;-76
2022/11/12 08:04:37;;;;;;;10.77;7.03;;;;;;;-141.28;100.00;50016.19;5114941;28;20195;-76
2022/11/12 08:07:06;;;;;;;11.50;5.70;;;;;;;-141.28;100.00;49984.78;5115076;28;20199;-80
2022/11/12 08:09:33;;;;;;;10.20;6.40;;;;;;;-141.28;100.00;49988.69;5114741;28;20441;-75
2022/11/12 08:12:00;;;;;;;9.63;6.50;;;;;;;-141.28;100.00;49957.31;5114746;28;20511;-78
2022/11/12 08:14:28;;;;;;;9.23;5.97;;;;;;;-141.28;100.00;49992.63;5114629;28;20505;-77
2022/11/12 08:16:55;;;;;;;14.17;8.03;;;;;;;-141.28;100.00;49984.78;5114715;28;20477;-76
2022/11/12 08:19:22;;;;;;;13.47;8.50;;;;;;;-141.28;100.00;50010.28;5114378;28;20195;-77
2022/11/12 08:21:50;;;;;;;13.03;7.43;;;;;;;-141.28;100.00;50014.22;5114508;28;20966;-75
2022/11/12 08:24:17;;;;;;;8.43;5.67;;;;;;;-141.28;100.00;50043.66;5114618;28;20455;-78
2022/11/12 08:26:44;;;;;;;11.70;4.67;;;;;;;-141.28;100.00;50047.59;5114048;28;21020;-78
2022/11/12 08:29:15;;;;;;;9.00;6.00;;;;;;;-141.28;100.00;50063.28;5114747;28;20195;-76
2022/11/12 08:31:45;;;;;;;10.73;5.53;;;;;;;-141.28;100.00;50043.66;5101802;28;20450;-77
2022/11/12 08:34:12;;;;;;;8.57;5.80;;;;;;;-141.28;100.00;50047.59;5113760;28;20263;-76
2022/11/12 08:36:40;;;;;;;6.87;4.77;;;;;;;-141.28;100.00;50031.88;5114201;28;20206;-76
2022/11/12 08:39:08;;;;;;;7.93;5.40;;;;;;;-141.28;100.00;50039.72;5113971;28;20512;-75
2022/11/12 08:41:35;;;;;;;6.00;4.50;;;;;;;-141.28;100.00;50031.88;5114328;28;20635;-75
2022/11/12 08:44:02;;;;;;;7.70;5.57;;;;;;;-141.28;100.00;50071.13;5113968;28;20250;-76
2022/11/12 08:46:29;;;;;;;9.67;6.23;;;;;;;-141.28;100.00;50102.53;5113997;28;20650;-77
2022/11/12 08:48:57;;;;;;;7.60;5.60;;;;;;;-141.28;100.00;50120.19;5113222;28;20207;-75
2022/11/12 08:51:24;;;;;;;9.47;5.00;;;;;;;-141.28;100.00;50133.94;5114162;28;20260;-75
2022/11/12 08:53:51;;;;;;;6.33;4.80;;;;;;;-141.28;100.00;50161.41;5114447;28;20203;-75
2022/11/12 08:56:20;;;;;;;7.93;5.00;;;;;;;-141.28;100.00;50212.44;5117056;28;20227;-75
2022/11/12 08:58:47;;;;;;;9.57;4.67;;;;;;;-141.28;100.00;50271.31;5114281;28;20265;-74
2022/11/12 09:01:15;;;;;;;6.87;4.70;;;;;;;-141.28;100.00;50322.34;5116823;28;20237;-78
2022/11/12 09:03:44;;;;;;;8.37;4.50;;;;;;;-141.28;100.00;50294.88;5113872;28;20264;-78
2022/11/12 09:06:12;;;;;;;8.00;4.63;;;;;;;-141.28;100.00;50310.59;5114115;28;20203;-78
2022/11/12 09:08:39;;;;;;;8.03;3.60;;;;;;;-141.28;100.00;50249.75;5113624;28;20256;-76
2022/11/12 09:11:07;;;;;;;7.97;4.70;;;;;;;-141.28;100.00;50347.88;5113836;28;20321;-76
2022/11/12 09:13:35;;;;;;;7.17;4.70;;;;;;;-141.28;100.00;50404.81;5112786;28;20270;-78
2022/11/12 09:16:03;;;;;;;11.93;5.13;;;;;;;-141.28;100.00;50422.47;5113852;28;20639;-76
2022/11/12 09:18:30;;;;;;;7.00;3.93;;;;;;;-141.28;100.00;50459.75;5113703;28;20234;-76
2022/11/12 09:21:02;;;;;;;6.50;4.07;;;;;;;-141.28;100.00;50420.50;5112258;28;20700;-75
2022/11/12 09:23:30;;;;;;;8.43;4.40;;;;;;;-141.28;100.00;50361.63;5113297;28;20198;-78
2022/11/12 09:25:58;;;;;;;6.90;4.43;;;;;;;-141.28;100.00;50275.25;5113518;28;20686;-76
2022/11/12 09:28:25;;;;;;;8.47;4.50;;;;;;;-141.28;100.00;50169.28;5099861;28;20206;-76
2022/11/12 09:30:54;;;;;;;5.93;4.33;;;;;;;-141.28;100.00;50092.72;5113507;28;20733;-77
2022/11/12 09:33:23;;;;;;;11.00;3.90;;;;;;;-141.28;100.00;50067.22;5113769;28;20593;-75
2022/11/12 09:35:51;;;;;;;3.93;2.93;;;;;;;-141.28;100.00;50124.13;5115140;28;20226;-76
2022/11/12 09:38:19;;;;;;;3.03;2.47;;;;;;;-141.28;100.00;50122.16;5113548;28;20982;-76
2022/11/12 09:41:03;;;;;;;5.60;3.23;;;;;;;-141.28;100.00;50141.78;5112858;28;20203;-77
2022/11/12 09:43:32;;;;;;;3.43;2.40;;;;;;;-141.28;100.00;50169.28;5113334;28;20278;-77
2022/11/12 09:46:06;;;;;;;5.00;2.73;;;;;;;-141.28;100.00;50133.94;5112049;28;20443;-76
2022/11/12 09:48:39;;;;;;;5.37;3.13;;;;;;;-141.28;100.00;50153.56;5113056;28;20821;-76
2022/11/12 09:51:12;;;;;;;5.10;3.10;;;;;;;-141.28;100.00;50236.00;5113202;28;20205;-77
2022/11/12 09:53:46;;;;;;;3.43;2.47;;;;;;;-141.28;100.00;50177.13;5113311;28;20287;-76
2022/11/12 09:56:20;;;;;;;5.10;3.77;;;;;;;-141.28;100.00;50206.56;5100105;28;20871;-79
2022/11/12 09:58:48;;;;;;;4.17;3.00;;;;;;;-141.28;100.00;50171.22;5112922;28;20249;-77
2022/11/12 10:01:18;;;;;;;9.37;5.87;;;;;;;-141.28;100.00;50161.41;5112880;28;20202;-76
2022/11/12 10:03:53;;;;;;;14.03;9.20;;;;;;;-141.28;100.00;50141.78;5099165;28;20203;-77
2022/11/12 10:06:23;;;;;;;10.40;3.70;;;;;;;-141.28;100.00;50157.50;5113086;28;20210;-75
2022/11/12 10:08:54;;;;;;;8.57;4.17;;;;;;;-141.28;100.00;50133.94;5112336;28;20819;-78
2022/11/12 10:14:55;;;;;;;14.13;3.73;;;;;;;-141.28;100.00;50232.06;5114117;28;20205;-75
2022/11/12 10:17:33;;;;;;;4.43;3.37;;;;;;;-141.28;100.00;50208.53;5110785;28;20474;-75
2022/11/12 10:20:13;;;;;;;4.27;3.40;;;;;;;-141.28;100.00;50192.81;5108359;28;20571;-77
2022/11/12 10:22:58;;;;;;;5.80;3.30;;;;;;;-141.28;100.00;50220.28;5112600;28;20206;-77
2022/11/12 10:25:26;;;;;;;5.80;4.23;;;;;;;-141.28;100.00;50143.75;5101224;28;20237;-77
2022/11/12 10:27:56;;;;;;;5.03;3.33;;;;;;;-141.28;100.00;50126.09;5112164;28;20865;-77
2022/11/12 10:30:25;;;;;;;6.53;2.93;;;;;;;-141.28;100.00;50082.91;5112652;28;20665;-76
2022/11/12 10:32:53;;;;;;;3.30;2.63;;;;;;;-141.28;100.00;50012.25;5112147;28;20517;-76
2022/11/12 10:35:23;;;;;;;5.77;3.27;;;;;;;-141.28;100.00;49943.56;5112725;28;20202;-74
2022/11/12 10:37:57;;;;;;;5.40;2.80;;;;;;;-141.28;100.00;49874.88;5112473;28;20198;-77
2022/11/12 10:40:31;;;;;;;5.87;3.83;;;;;;;-141.28;100.00;49872.91;5112808;28;20191;-80
2022/11/12 10:43:03;;;;;;;5.90;3.67;;;;;;;-141.28;100.00;49867.03;5112181;28;20206;-77
2022/11/12 10:45:31;;;;;;;7.07;4.00;;;;;;;-141.28;100.00;49839.56;5112506;28;20199;-76
2022/11/12 10:47:59;;;;;;;6.60;4.77;;;;;;;-141.28;100.00;49863.09;5111675;28;20207;-78
2022/11/12 10:50:32;;;;;;;18.00;7.13;;;;;;;-141.28;100.00;49847.41;5111984;28;20537;-76
2022/11/12 10:53:00;;;;;;;24.70;9.47;;;;;;;-141.28;100.00;49833.66;5112331;28;20300;-76
2022/11/12 10:55:29;;;;;;;22.23;8.43;;;;;;;-141.28;100.00;49749.28;5112163;28;20452;-75
2022/11/12 10:58:06;;;;;;;13.93;5.67;;;;;;;-141.28;100.00;49753.19;5112095;28;20294;-78
2022/11/12 11:00:34;;;;;;;5.67;2.97;;;;;;;-141.28;100.00;49710.03;5112553;28;20198;-76
2022/11/12 11:03:05;;;;;;;5.50;3.17;;;;;;;-141.28;100.00;49662.94;5112571;28;20453;-76
2022/11/12 11:05:35;;;;;;;12.17;6.90;;;;;;;-141.28;100.00;49643.31;5099015;28;20459;-77
2022/11/12 11:08:04;;;;;;;17.30;8.77;;;;;;;-141.28;100.00;49623.69;5112140;28;20467;-78
2022/11/12 11:10:32;;;;;;;7.57;5.87;;;;;;;-141.28;100.00;49615.84;5112141;28;20449;-76
2022/11/12 11:13:18;;;;;;;7.83;5.83;;;;;;;-141.28;100.00;49670.78;5112444;28;20206;-77
2022/11/12 11:16:00;;;;;;;12.50;9.13;;;;;;;-141.28;100.00;49698.25;5112883;28;20527;-76
2022/11/12 11:18:28;;;;;;;5.47;4.00;;;;;;;-141.28;100.00;49696.28;5112892;28;20936;-76
2022/11/12 11:21:07;;;;;;;5.30;3.00;;;;;;;-141.28;100.00;49796.38;5120970;28;20478;-76
2022/11/12 11:23:46;;;;;;;3.30;2.73;;;;;;;-141.28;100.00;49882.72;5135628;28;20194;-77
2022/11/12 11:26:25;;;;;;;5.67;3.73;;;;;;;-141.28;100.00;49906.28;5135984;28;20190;-76
2022/11/12 11:29:01;;;;;;;6.63;3.33;;;;;;;-141.28;100.00;49945.53;5136671;28;20205;-76
2022/11/12 11:31:40;;;;;;;4.27;3.30;;;;;;;-141.28;100.00;50024.03;5136252;28;20222;-78
2022/11/12 11:34:20;;;;;;;3.83;3.00;;;;;;;-141.28;100.00;50059.34;5117349;28;20298;-75
2022/11/12 11:37:00;;;;;;;3.70;3.00;;;;;;;-141.28;100.00;50039.72;5115643;28;20205;-77
2022/11/12 11:39:36;;;;;;;6.00;3.63;;;;;;;-141.28;100.00;50020.09;5113923;28;20263;-77
2022/11/12 11:42:14;;;;;;;5.47;3.47;;;;;;;-141.28;100.00;49973.00;5112337;28;20528;-78